logo tempoitalia

Diretta Meteo Cannon-Clovis, Stati Uniti (USA)domenica 30 agosto ore 23:55

Mappa
Sereno 24 °C Sereno 24 Ore: T.min 22 T.max 38
Ponente Sud Km/h 13 Punto di rugiada: 10 °C Umidità: 41% Visibilità: 10 Km
Il sole sorge alle: 06:25 Il sole tramonta alle: 19:22
30 Agosto 2026 23:55 tempo osservato: Sereno Sereno 24 41 1018 vento: Nord S 13
30 Agosto 2026 22:55 tempo osservato: Sereno Sereno 26 36 1017 vento: Nord S/SE 18.5
30 Agosto 2026 21:55 tempo osservato: Sereno Sereno 26 34 1017 vento: Nord S/SE 16.7
30 Agosto 2026 20:55 tempo osservato: Sereno Sereno 28 30 1016 vento: Nord S/SE 18.5
30 Agosto 2026 19:55 tempo osservato: Sereno Sereno 31 25 1015 vento: Nord S/SE 20.3
30 Agosto 2026 18:55 tempo osservato: Sereno Sereno 34 20 1015 vento: Nord S/SE 29.6
30 Agosto 2026 17:55 tempo osservato: Nuvoloso Nuvoloso 36 16 1015 vento: Nord S 29.6
30 Agosto 2026 16:55 tempo osservato: Nuvoloso Nuvoloso 38 16 1015 vento: Nord S 14.8
30 Agosto 2026 15:55 tempo osservato: Poco Nuvoloso Poco Nuvoloso 37 17 1015 vento: Nord S/SO 14.8
30 Agosto 2026 14:55 tempo osservato: Molto Nuvoloso Molto Nuvoloso 37 17 1016 vento: Nord SO 13
30 Agosto 2026 13:55 tempo osservato: Poco Nuvoloso Poco Nuvoloso 35 19 1017 vento: Nord O/SO 18.5
30 Agosto 2026 13:03 tempo osservato: Sereno Sereno 36 18 1017 vento: Nord O/SO 22.2
30 Agosto 2026 12:59 tempo osservato: Sereno Sereno 36 18 1017 vento: Nord SO 22.2
30 Agosto 2026 12:55 tempo osservato: Sereno Sereno 36 19 1017 vento: Nord O 18.5
30 Agosto 2026 12:26 tempo osservato: Sereno Sereno 36 19 1018 vento: Nord SO 24
30 Agosto 2026 12:13 tempo osservato: Sereno Sereno 36 19 1018 vento: Nord O 24
30 Agosto 2026 12:10 tempo osservato: Sereno Sereno 36 19 1018 vento: Nord SO 25.9
30 Agosto 2026 11:55 tempo osservato: Sereno Sereno 36 19 1018 vento: Nord O/SO 18.5
30 Agosto 2026 10:55 tempo osservato: Sereno Sereno 34 23 1019 vento: Nord O 14.8
30 Agosto 2026 09:55 tempo osservato: Sereno Sereno 32 31 1019 vento: Nord O/SO 18.5
30 Agosto 2026 08:55 tempo osservato: Sereno Sereno 28 42 1019 vento: Nord S/SO 25.9
30 Agosto 2026 07:55 tempo osservato: Sereno Sereno 25 53 1019 vento: Nord SO 18.5
30 Agosto 2026 06:55 tempo osservato: Sereno Sereno 22 60 1019 vento: Nord S/SO 9.3
30 Agosto 2026 05:55 tempo osservato: Sereno Sereno 22 56 1018 vento: Nord SO 11.1
30 Agosto 2026 05:09 tempo osservato: Coperto Coperto 23 56 1019 vento: Nord O/SO 14.8
30 Agosto 2026 04:56 tempo osservato: Pioviggine Pioviggine 24 50 1019 vento: Nord O/SO 14.8
30 Agosto 2026 04:55 tempo osservato: Coperto Coperto 24 50 1019 vento: Nord O/SO 16.7
30 Agosto 2026 03:55 tempo osservato: Coperto Coperto 24 47 1019 vento: Nord SO 11.1
30 Agosto 2026 02:55 tempo osservato: Sereno Sereno 25 41 1018 vento: Nord S/SO 14.8
30 Agosto 2026 01:55 tempo osservato: Sereno Sereno 25 41 1018 vento: Nord S 14.8
30 Agosto 2026 00:55 tempo osservato: Sereno Sereno 25 38 1018 vento: Nord S 16.7